Brookpark, Ohio
Current Conditions -  °F | °C
As of 5:09 AM on Monday 26 Jan 2015 (Local Time) from KCLE Reporting Station
Light Snow Light Snow  
Wind Chill:   Ceiling: 4000
Heat Index: 19°   Visibility: 2mi
Dew Point: 15°   Wind: 12mph
Humidity: 85%   Direction: 30°NNE
Pressure: 29.84"   Gusts: NA
Location:  41.3979°N, 81.8118°W
Report Text: KCLE 261009Z 03010KT 2SM -SN OVC040 M07/M09 A2984 RMK AO2 P0000 T10721094
Loading
Personal Weather Stations






























Interactive Weather Map New forecast layout! Learn more

10-Day Weather Forecast

Advertisements
Track Severe Weather on mobile